Nil Demir — 3ELP5 — position and weather

sailwx.info

Track history (hours):
 
Tides and Currents Weather Stations Pressure Air Temp Water Temp Dewpoint Dewpoint Depression Visibility Wind Speed Wind Dir Waves Ship Positions

Nil Demir

Last reported at 2017-Sep-21 01:31 UTC. Time now 2017-Sep-24 14:24 UTC.
Position N 34°19' E 030°12'.

Length 93 m; draft 4.5 m.

Type: Cargo ship. MMSI: 354692000.

Date/timePositionNaut miles runAvg speedWind from/ knotsBaromVisibWave heightAir tempDewpointWater temp
2017-Sep-21 01:31N 34°19' E 030°12'0 8.0
2017-Sep-21 01:31N 34°19' E 030°12'5 8.7
2017-Sep-21 00:58N 34°16' E 030°17'5 8.9
2017-Sep-21 00:27N 34°14' E 030°22'6 9.0
2017-Sep-20 23:45N 34°10' E 030°28'2 9.0
2017-Sep-20 23:30N 34°09' E 030°30'7 8.8
2017-Sep-20 22:39N 34°05' E 030°38'1 8.6
2017-Sep-20 22:30N 34°04' E 030°39'16 8.8
2017-Sep-20 20:41N 33°55' E 030°55'2 8.7
2017-Sep-20 20:29N 33°54' E 030°57'11 8.7
2017-Sep-20 19:13N 33°48' E 031°08'2 8.9
2017-Sep-20 19:00N 33°47' E 031°10'  
2017-Sep-14 14:27N 31°50' E 034°39'2 0.1
2017-Sep-13 19:15N 31°50' E 034°36'0 0.0
2017-Sep-13 19:00N 31°50' E 034°36'0 0.0
2017-Sep-13 18:24N 31°50' E 034°36'0 0.0
2017-Sep-13 18:00N 31°50' E 034°36'0 0.0
2017-Sep-13 17:25N 31°50' E 034°36'0 0.0
2017-Sep-13 17:00N 31°50' E 034°36'0 0.0
2017-Sep-13 16:30N 31°50' E 034°36'0 0.0
2017-Sep-13 16:00N 31°50' E 034°36'0 0.0
2017-Sep-13 15:30N 31°50' E 034°36'0 0.0
2017-Sep-13 15:00N 31°50' E 034°36'0 0.0
2017-Sep-13 14:30N 31°50' E 034°36'0 0.0
2017-Sep-13 13:59N 31°50' E 034°36'0 0.0
2017-Sep-13 13:30N 31°50' E 034°36'0 0.0
2017-Sep-13 13:00N 31°50' E 034°36'0 0.0
2017-Sep-13 12:30N 31°50' E 034°36'0 0.0
2017-Sep-13 11:50N 31°50' E 034°36'0 0.0
2017-Sep-13 11:20N 31°50' E 034°36'0 0.0
2017-Sep-13 04:19N 31°50' E 034°36'0 0.0
2017-Sep-13 03:46N 31°50' E 034°36'0 0.0
2017-Sep-13 03:30N 31°50' E 034°36'0 0.0
2017-Sep-13 01:42N 31°50' E 034°36'0 0.0
2017-Sep-13 01:30N 31°50' E 034°36'0 0.0
2017-Sep-13 01:00N 31°50' E 034°36'0 0.0
2017-Sep-13 00:30N 31°50' E 034°36'0 0.0
2017-Sep-12 22:59N 31°50' E 034°36'0 0.0
2017-Sep-12 22:11N 31°50' E 034°36'0 0.0
2017-Sep-12 21:51N 31°50' E 034°36'0 0.0
2017-Sep-12 21:31N 31°50' E 034°36'0 0.0
2017-Sep-12 19:58N 31°50' E 034°36'0 0.0
2017-Sep-12 19:26N 31°50' E 034°36'0 0.0
2017-Sep-12 19:00N 31°50' E 034°36'0 0.0
2017-Sep-12 18:30N 31°50' E 034°36'0 0.0
2017-Sep-12 18:01N 31°50' E 034°36'0 0.0
2017-Sep-12 17:30N 31°50' E 034°36'0 0.0
2017-Sep-12 16:55N 31°50' E 034°36'0 0.0
2017-Sep-12 16:30N 31°50' E 034°36'0 0.0
2017-Sep-12 16:00N 31°50' E 034°36'0 0.0
2017-Sep-12 15:30N 31°50' E 034°36'0 0.0
2017-Sep-12 14:55N 31°50' E 034°36'0 0.0
2017-Sep-12 14:30N 31°50' E 034°36'0 0.0
2017-Sep-12 14:00N 31°50' E 034°36'0 0.0
2017-Sep-12 13:30N 31°50' E 034°36'0 0.0
2017-Sep-12 13:00N 31°50' E 034°36'0 0.0
2017-Sep-12 12:30N 31°50' E 034°36'0 0.0
2017-Sep-12 12:01N 31°50' E 034°36'0 0.0
2017-Sep-12 11:30N 31°50' E 034°36'0 0.0
2017-Sep-12 11:00N 31°50' E 034°36'0 0.0
2017-Sep-12 10:17N 31°50' E 034°36'0 0.0
2017-Sep-12 09:58N 31°50' E 034°36'0 0.0
2017-Sep-12 09:30N 31°50' E 034°36'0 0.0
2017-Sep-12 09:00N 31°50' E 034°36'0 0.0
2017-Sep-12 08:30N 31°50' E 034°36'0 0.0
2017-Sep-12 08:00N 31°50' E 034°36'0 0.0
2017-Sep-12 07:30N 31°50' E 034°36'0 0.0
2017-Sep-12 07:00N 31°50' E 034°36'0 0.0
2017-Sep-12 06:30N 31°50' E 034°36'0 0.0
2017-Sep-12 06:00N 31°50' E 034°36'0 0.0
2017-Sep-12 05:30N 31°50' E 034°36'0 0.0
2017-Sep-12 04:40N 31°50' E 034°36'0 0.0
2017-Sep-12 03:23N 31°50' E 034°36'0 0.0
2017-Sep-12 02:58N 31°50' E 034°36'0 0.0
2017-Sep-12 02:30N 31°50' E 034°36'0 0.0
2017-Sep-12 01:50N 31°50' E 034°36'0 0.0
2017-Sep-12 01:19N 31°50' E 034°36'0 0.0
2017-Sep-12 00:56N 31°50' E 034°36'0 0.0
2017-Sep-12 00:09N 31°50' E 034°36'0 0.0
2017-Sep-11 23:59N 31°50' E 034°36'0 0.0
2017-Sep-11 23:30N 31°50' E 034°36'0 0.0
2017-Sep-11 22:55N 31°50' E 034°36'0 0.0
2017-Sep-11 20:25N 31°50' E 034°36'0 0.0
2017-Sep-11 18:36N 31°50' E 034°36'2 1.1
2017-Sep-11 16:33N 31°51' E 034°34'0 7.8
2017-Sep-11 16:30N 31°51' E 034°33'5 8.2
2017-Sep-11 15:57N 31°54' E 034°30'4 8.6
2017-Sep-11 15:29N 31°58' E 034°27'4 8.6
2017-Sep-11 15:00N 32°02' E 034°25'5 8.7
2017-Sep-11 14:24N 32°06' E 034°23'4 8.8
2017-Sep-11 13:59N 32°10' E 034°22'8 8.9
2017-Sep-11 13:05N 32°18' E 034°21'3 8.9
2017-Sep-11 12:44N 32°21' E 034°20'3 8.9
2017-Sep-11 12:24N 32°24' E 034°20'6 8.7
2017-Sep-11 11:40N 32°30' E 034°17'1 8.6
2017-Sep-11 11:30N 32°31' E 034°17'4 8.8
2017-Sep-11 11:00N 32°35' E 034°16'4 8.7
2017-Sep-11 10:30N 32°40' E 034°14'4 8.6
2017-Sep-11 10:00N 32°44' E 034°13'4 8.5
2017-Sep-11 09:30N 32°48' E 034°12'4 8.3
2017-Sep-11 08:58N 32°52' E 034°11'4 8.2
2017-Sep-11 08:30N 32°56' E 034°10'4 8.1
2017-Sep-11 08:00N 33°00' E 034°09'4 8.2
2017-Sep-11 07:30N 33°04' E 034°08'4 8.2
2017-Sep-11 07:00N 33°08' E 034°07'4 8.2
2017-Sep-11 06:30N 33°12' E 034°06'4 8.1
2017-Sep-11 06:00N 33°16' E 034°04'4 8.1
2017-Sep-11 05:30N 33°20' E 034°03'4 8.1
2017-Sep-11 05:00N 33°24' E 034°02'4 8.1
2017-Sep-11 04:30N 33°28' E 034°01'6 8.2
2017-Sep-11 03:50N 33°33' E 033°60'3 8.3
2017-Sep-11 03:30N 33°36' E 033°59'  
Track history (hours):
 
Tides and Currents Weather Stations Pressure Air Temp Water Temp Dewpoint Dewpoint Depression Visibility Wind Speed Wind Dir Waves Ship Positions

Nil Demir

Last reported at 2017-Sep-21 01:31 UTC. Time now 2017-Sep-24 14:24 UTC.
Position N 34°19' E 030°12'.

Length 93 m; draft 4.5 m.

Type: Cargo ship. MMSI: 354692000.

Date/timePositionNaut miles runAvg speedWind from/ knotsBaromVisibWave heightAir tempDewpointWater temp
2017-Sep-21 01:31N 34°19' E 030°12'0 8.0
2017-Sep-21 01:31N 34°19' E 030°12'5 8.7
2017-Sep-21 00:58N 34°16' E 030°17'5 8.9
2017-Sep-21 00:27N 34°14' E 030°22'6 9.0
2017-Sep-20 23:45N 34°10' E 030°28'2 9.0
2017-Sep-20 23:30N 34°09' E 030°30'7 8.8
2017-Sep-20 22:39N 34°05' E 030°38'1 8.6
2017-Sep-20 22:30N 34°04' E 030°39'16 8.8
2017-Sep-20 20:41N 33°55' E 030°55'2 8.7
2017-Sep-20 20:29N 33°54' E 030°57'11 8.7
2017-Sep-20 19:13N 33°48' E 031°08'2 8.9
2017-Sep-20 19:00N 33°47' E 031°10'  
2017-Sep-14 14:27N 31°50' E 034°39'2 0.1
2017-Sep-13 19:15N 31°50' E 034°36'0 0.0
2017-Sep-13 19:00N 31°50' E 034°36'0 0.0
2017-Sep-13 18:24N 31°50' E 034°36'0 0.0
2017-Sep-13 18:00N 31°50' E 034°36'0 0.0
2017-Sep-13 17:25N 31°50' E 034°36'0 0.0
2017-Sep-13 17:00N 31°50' E 034°36'0 0.0
2017-Sep-13 16:30N 31°50' E 034°36'0 0.0
2017-Sep-13 16:00N 31°50' E 034°36'0 0.0
2017-Sep-13 15:30N 31°50' E 034°36'0 0.0
2017-Sep-13 15:00N 31°50' E 034°36'0 0.0
2017-Sep-13 14:30N 31°50' E 034°36'0 0.0
2017-Sep-13 13:59N 31°50' E 034°36'0 0.0
2017-Sep-13 13:30N 31°50' E 034°36'0 0.0
2017-Sep-13 13:00N 31°50' E 034°36'0 0.0
2017-Sep-13 12:30N 31°50' E 034°36'0 0.0
2017-Sep-13 11:50N 31°50' E 034°36'0 0.0
2017-Sep-13 11:20N 31°50' E 034°36'0 0.0
2017-Sep-13 04:19N 31°50' E 034°36'0 0.0
2017-Sep-13 03:46N 31°50' E 034°36'0 0.0
2017-Sep-13 03:30N 31°50' E 034°36'0 0.0
2017-Sep-13 01:42N 31°50' E 034°36'0 0.0
2017-Sep-13 01:30N 31°50' E 034°36'0 0.0
2017-Sep-13 01:00N 31°50' E 034°36'0 0.0
2017-Sep-13 00:30N 31°50' E 034°36'0 0.0
2017-Sep-12 22:59N 31°50' E 034°36'0 0.0
2017-Sep-12 22:11N 31°50' E 034°36'0 0.0
2017-Sep-12 21:51N 31°50' E 034°36'0 0.0
2017-Sep-12 21:31N 31°50' E 034°36'0 0.0
2017-Sep-12 19:58N 31°50' E 034°36'0 0.0
2017-Sep-12 19:26N 31°50' E 034°36'0 0.0
2017-Sep-12 19:00N 31°50' E 034°36'0 0.0
2017-Sep-12 18:30N 31°50' E 034°36'0 0.0
2017-Sep-12 18:01N 31°50' E 034°36'0 0.0
2017-Sep-12 17:30N 31°50' E 034°36'0 0.0
2017-Sep-12 16:55N 31°50' E 034°36'0 0.0
2017-Sep-12 16:30N 31°50' E 034°36'0 0.0
2017-Sep-12 16:00N 31°50' E 034°36'0 0.0
2017-Sep-12 15:30N 31°50' E 034°36'0 0.0
2017-Sep-12 14:55N 31°50' E 034°36'0 0.0
2017-Sep-12 14:30N 31°50' E 034°36'0 0.0
2017-Sep-12 14:00N 31°50' E 034°36'0 0.0
2017-Sep-12 13:30N 31°50' E 034°36'0 0.0
2017-Sep-12 13:00N 31°50' E 034°36'0 0.0
2017-Sep-12 12:30N 31°50' E 034°36'0 0.0
2017-Sep-12 12:01N 31°50' E 034°36'0 0.0
2017-Sep-12 11:30N 31°50' E 034°36'0 0.0
2017-Sep-12 11:00N 31°50' E 034°36'0 0.0
2017-Sep-12 10:17N 31°50' E 034°36'0 0.0
2017-Sep-12 09:58N 31°50' E 034°36'0 0.0
2017-Sep-12 09:30N 31°50' E 034°36'0 0.0
2017-Sep-12 09:00N 31°50' E 034°36'0 0.0
2017-Sep-12 08:30N 31°50' E 034°36'0 0.0
2017-Sep-12 08:00N 31°50' E 034°36'0 0.0
2017-Sep-12 07:30N 31°50' E 034°36'0 0.0
2017-Sep-12 07:00N 31°50' E 034°36'0 0.0
2017-Sep-12 06:30N 31°50' E 034°36'0 0.0
2017-Sep-12 06:00N 31°50' E 034°36'0 0.0
2017-Sep-12 05:30N 31°50' E 034°36'0 0.0
2017-Sep-12 04:40N 31°50' E 034°36'0 0.0
2017-Sep-12 03:23N 31°50' E 034°36'0 0.0
2017-Sep-12 02:58N 31°50' E 034°36'0 0.0
2017-Sep-12 02:30N 31°50' E 034°36'0 0.0
2017-Sep-12 01:50N 31°50' E 034°36'0 0.0
2017-Sep-12 01:19N 31°50' E 034°36'0 0.0
2017-Sep-12 00:56N 31°50' E 034°36'0 0.0
2017-Sep-12 00:09N 31°50' E 034°36'0 0.0
2017-Sep-11 23:59N 31°50' E 034°36'0 0.0
2017-Sep-11 23:30N 31°50' E 034°36'0 0.0
2017-Sep-11 22:55N 31°50' E 034°36'0 0.0
2017-Sep-11 20:25N 31°50' E 034°36'0 0.0
2017-Sep-11 18:36N 31°50' E 034°36'2 1.1
2017-Sep-11 16:33N 31°51' E 034°34'0 7.8
2017-Sep-11 16:30N 31°51' E 034°33'5 8.2
2017-Sep-11 15:57N 31°54' E 034°30'4 8.6
2017-Sep-11 15:29N 31°58' E 034°27'4 8.6
2017-Sep-11 15:00N 32°02' E 034°25'5 8.7
2017-Sep-11 14:24N 32°06' E 034°23'4 8.8
2017-Sep-11 13:59N 32°10' E 034°22'8 8.9
2017-Sep-11 13:05N 32°18' E 034°21'3 8.9
2017-Sep-11 12:44N 32°21' E 034°20'3 8.9
2017-Sep-11 12:24N 32°24' E 034°20'6 8.7
2017-Sep-11 11:40N 32°30' E 034°17'1 8.6
2017-Sep-11 11:30N 32°31' E 034°17'4 8.8
2017-Sep-11 11:00N 32°35' E 034°16'4 8.7
2017-Sep-11 10:30N 32°40' E 034°14'4 8.6
2017-Sep-11 10:00N 32°44' E 034°13'4 8.5
2017-Sep-11 09:30N 32°48' E 034°12'4 8.3
2017-Sep-11 08:58N 32°52' E 034°11'4 8.2
2017-Sep-11 08:30N 32°56' E 034°10'4 8.1
2017-Sep-11 08:00N 33°00' E 034°09'4 8.2
2017-Sep-11 07:30N 33°04' E 034°08'4 8.2
2017-Sep-11 07:00N 33°08' E 034°07'4 8.2
2017-Sep-11 06:30N 33°12' E 034°06'4 8.1
2017-Sep-11 06:00N 33°16' E 034°04'4 8.1
2017-Sep-11 05:30N 33°20' E 034°03'4 8.1
2017-Sep-11 05:00N 33°24' E 034°02'4 8.1
2017-Sep-11 04:30N 33°28' E 034°01'6 8.2
2017-Sep-11 03:50N 33°33' E 033°60'3 8.3
2017-Sep-11 03:30N 33°36' E 033°59'  

Dump ship's entire track history